Terminal Aerodrome Forecast
Issued by NWS

Home | Current Version | Previous Version | Text Only | Print | Product List | Glossary On
Versions: 1 2 3 4 5 6 7 8 9 10 11 12
000
FTAK31 PAJN 251100
TAFAJN
TAF
PAJN 251138Z 2512/2612 09011KT P6SM -RA SCT025 OVC045
      TEMPO 2512/2516 6SM -RA BR BKN025
     FM251600 09011KT 6SM -RA BR BKN025 OVC040
     FM252100 12009KT P6SM -RA SCT010 OVC025
     FM260300 10009KT P6SM -SHRA SCT015 OVC035=

USA.gov is the U.S. government's official web portal to all federal, state and local government web resources and services.